createdAt,value
2023-04-09T00:02:55.705Z,100793.53
2023-04-09T00:05:58.480Z,100797.65
2023-04-09T00:09:01.171Z,100795.58
2023-04-09T00:12:03.916Z,100793.11
2023-04-09T00:15:09.653Z,100794.27
2023-04-09T00:18:14.704Z,100790.90
2023-04-09T00:21:21.224Z,100791.23
2023-04-09T00:24:23.890Z,100783.88
2023-04-09T00:27:26.606Z,100781.45
2023-04-09T00:30:30.550Z,100771.95
2023-04-09T00:33:33.252Z,100779.92
2023-04-09T00:36:36.340Z,100779.88
2023-04-09T00:39:39.060Z,100772.73
2023-04-09T00:42:42.179Z,100773.67
2023-04-09T00:45:45.592Z,100771.02
2023-04-09T00:48:48.332Z,100763.21
2023-04-09T00:51:52.737Z,100764.67
2023-04-09T00:54:55.499Z,100764.46
2023-04-09T00:57:58.268Z,100760.91
2023-04-09T01:01:01.128Z,100764.64
2023-04-09T01:04:04.406Z,100765.70
2023-04-09T01:07:20.352Z,100762.56
2023-04-09T01:10:31.084Z,100761.48
2023-04-09T01:13:53.515Z,100764.95
2023-04-09T01:17:04.863Z,100769.53
2023-04-09T01:20:18.808Z,100770.17
2023-04-09T01:23:47.619Z,100775.67
2023-04-09T01:27:07.949Z,100775.16
2023-04-09T01:30:11.975Z,100773.16
2023-04-09T01:33:18.325Z,100777.98
2023-04-09T01:36:21.893Z,100778.27
2023-04-09T01:39:25.684Z,100780.49
2023-04-09T01:42:29.770Z,100781.98
2023-04-09T01:45:33.170Z,100778.42
2023-04-09T01:48:36.816Z,100774.88
2023-04-09T01:51:39.778Z,100775.21
2023-04-09T01:54:43.172Z,100771.73
2023-04-09T01:57:46.138Z,100776.15
2023-04-09T02:00:50.088Z,100776.15
2023-04-09T02:04:03.452Z,100780.01
2023-04-09T02:07:10.185Z,100780.55
2023-04-09T02:10:14.295Z,100784.32
2023-04-09T02:13:19.023Z,100778.46
2023-04-09T02:16:22.883Z,100775.52
2023-04-09T02:19:25.996Z,100772.92
2023-04-09T02:22:28.692Z,100769.45
2023-04-09T02:25:31.927Z,100768.77
2023-04-09T02:28:34.923Z,100759.69
2023-04-09T02:31:37.649Z,100763.36
2023-04-09T02:34:40.688Z,100756.67
2023-04-09T02:37:43.422Z,100747.22
2023-04-09T02:40:46.112Z,100749.77
2023-04-09T02:43:49.142Z,100747.02
2023-04-09T02:46:54.945Z,100746.84
2023-04-09T02:49:57.627Z,100746.48
2023-04-09T02:53:00.435Z,100748.59
2023-04-09T02:56:03.620Z,100745.16
2023-04-09T02:59:06.433Z,100736.37
2023-04-09T03:02:09.423Z,100744.50
2023-04-09T03:05:12.285Z,100746.77
2023-04-09T03:08:15.049Z,100743.67
2023-04-09T03:11:18.066Z,100742.23
2023-04-09T03:14:20.744Z,100740.83
2023-04-09T03:17:25.851Z,100737.20
2023-04-09T03:20:28.477Z,100735.60
2023-04-09T03:23:35.173Z,100742.19
2023-04-09T03:26:38.682Z,100736.76
2023-04-09T03:29:41.669Z,100737.98
2023-04-09T03:32:44.510Z,100741.59
2023-04-09T03:35:47.300Z,100739.63
2023-04-09T03:38:50.570Z,100739.15
2023-04-09T03:41:54.730Z,100741.15
2023-04-09T03:44:57.443Z,100739.11
2023-04-09T03:48:00.238Z,100740.46
2023-04-09T03:51:03.020Z,100741.64
2023-04-09T03:54:05.761Z,100738.06
2023-04-09T03:57:08.488Z,100739.89
2023-04-09T04:00:11.891Z,100740.61
2023-04-09T04:03:16.513Z,100740.56
2023-04-09T04:06:20.449Z,100737.73
2023-04-09T04:09:26.902Z,100741.55
2023-04-09T04:12:31.964Z,100741.73
2023-04-09T04:15:42.177Z,100747.66
2023-04-09T04:18:44.942Z,100748.46
2023-04-09T04:21:49.639Z,100748.59
2023-04-09T04:24:52.331Z,100748.70
2023-04-09T04:27:55.551Z,100749.30
2023-04-09T04:30:59.782Z,100743.63
2023-04-09T04:34:02.481Z,100744.44
2023-04-09T04:37:05.358Z,100741.58
2023-04-09T04:40:08.938Z,100753.34
2023-04-09T04:43:11.701Z,100748.30
2023-04-09T04:46:14.416Z,100752.14
2023-04-09T04:49:17.285Z,100751.08
2023-04-09T04:52:20.020Z,100755.11
2023-04-09T04:55:22.713Z,100757.95
2023-04-09T04:58:26.092Z,100758.55
2023-04-09T05:01:28.872Z,100765.14
2023-04-09T05:04:33.790Z,100773.39
2023-04-09T05:07:36.760Z,100768.77
2023-04-09T05:10:46.936Z,100769.46
2023-04-09T05:13:49.576Z,100762.48
2023-04-09T05:16:52.406Z,100763.73
2023-04-09T05:19:55.253Z,100764.73
2023-04-09T05:22:57.889Z,100764.30
2023-04-09T05:26:00.618Z,100765.16
2023-04-09T05:29:03.370Z,100761.20
2023-04-09T05:32:06.998Z,100758.27
2023-04-09T05:35:09.734Z,100759.89
2023-04-09T05:38:13.867Z,100760.78
2023-04-09T05:41:16.647Z,100758.80
2023-04-09T05:44:27.703Z,100758.59
2023-04-09T05:47:30.633Z,100756.31
2023-04-09T05:50:43.629Z,100754.66
2023-04-09T05:53:50.454Z,100758.17
2023-04-09T05:56:53.330Z,100761.55
2023-04-09T05:59:56.469Z,100764.52
2023-04-09T06:02:59.368Z,100769.95
2023-04-09T06:06:08.416Z,100772.83
2023-04-09T06:09:17.605Z,100774.25
2023-04-09T06:12:20.516Z,100769.80
2023-04-09T06:15:27.610Z,100768.35
2023-04-09T06:18:30.349Z,100772.14
2023-04-09T06:21:33.341Z,100768.20
2023-04-09T06:24:38.436Z,100776.64
2023-04-09T06:27:41.052Z,100776.76
2023-04-09T06:30:43.794Z,100775.64
2023-04-09T06:33:46.481Z,100781.32
2023-04-09T06:36:49.185Z,100775.38
2023-04-09T06:40:00.412Z,100776.23
2023-04-09T06:43:05.082Z,100777.39
2023-04-09T06:46:07.930Z,100773.30
2023-04-09T06:49:11.138Z,100771.91
2023-04-09T06:52:13.832Z,100768.69
2023-04-09T06:55:16.636Z,100775.85
2023-04-09T06:58:19.416Z,100783.86
2023-04-09T07:01:22.232Z,100790.39
2023-04-09T07:04:25.099Z,100787.77
2023-04-09T07:07:27.976Z,100779.75
2023-04-09T07:10:30.654Z,100787.09
2023-04-09T07:13:33.626Z,100788.90
2023-04-09T07:16:36.454Z,100789.81
2023-04-09T07:19:39.175Z,100794.15
2023-04-09T07:22:41.934Z,100790.70
2023-04-09T07:25:44.621Z,100793.53
2023-04-09T07:28:47.272Z,100795.09
2023-04-09T07:31:50.018Z,100794.72
2023-04-09T07:34:53.982Z,100795.79
2023-04-09T07:37:57.378Z,100792.38
2023-04-09T07:41:00.380Z,100798.34
2023-04-09T07:44:03.608Z,100796.98
2023-04-09T07:47:08.678Z,100793.10
2023-04-09T07:50:12.363Z,100787.59
2023-04-09T07:53:15.666Z,100787.52
2023-04-09T07:56:18.436Z,100786.98
2023-04-09T07:59:21.410Z,100784.84
2023-04-09T08:02:24.457Z,100790.40
2023-04-09T08:05:28.431Z,100789.51
2023-04-09T08:08:31.130Z,100793.23
2023-04-09T08:11:33.890Z,100795.55
2023-04-09T08:14:36.828Z,100799.66
2023-04-09T08:17:40.715Z,100802.22
2023-04-09T08:20:45.579Z,100803.83
2023-04-09T08:23:48.599Z,100800.62
2023-04-09T08:26:51.330Z,100799.78
2023-04-09T08:29:54.018Z,100802.14
2023-04-09T08:32:56.743Z,100803.34
2023-04-09T08:36:00.836Z,100808.52
2023-04-09T08:39:05.558Z,100810.65
2023-04-09T08:42:08.937Z,100810.12
2023-04-09T08:45:13.092Z,100813.19
2023-04-09T08:48:21.339Z,100810.91
2023-04-09T08:51:24.727Z,100809.09
2023-04-09T08:54:42.007Z,100813.34
2023-04-09T08:57:44.844Z,100810.42
2023-04-09T09:00:47.766Z,100810.86
2023-04-09T09:03:56.840Z,100811.44
2023-04-09T09:07:06.853Z,100809.81
2023-04-09T09:10:09.914Z,100809.89
2023-04-09T09:13:22.627Z,100811.32
2023-04-09T09:16:34.802Z,100812.42
2023-04-09T09:19:37.622Z,100815.41
2023-04-09T09:22:54.906Z,100821.39
2023-04-09T09:26:00.936Z,100821.23
2023-04-09T09:29:05.879Z,100822.83
2023-04-09T09:32:13.641Z,100826.89
2023-04-09T09:35:16.463Z,100826.41
2023-04-09T09:38:19.189Z,100823.02
2023-04-09T09:41:22.231Z,100820.11
2023-04-09T09:44:33.433Z,100818.59
2023-04-09T09:47:37.627Z,100818.30
2023-04-09T09:50:44.642Z,100814.39
2023-04-09T09:53:52.521Z,100816.88
2023-04-09T09:57:02.126Z,100817.79
2023-04-09T10:00:06.841Z,100814.23
2023-04-09T10:03:20.065Z,100810.56
2023-04-09T10:06:23.950Z,100810.65
2023-04-09T10:09:28.241Z,100810.35
2023-04-09T10:12:31.247Z,100805.58
2023-04-09T10:15:33.993Z,100811.40
2023-04-09T10:18:36.807Z,100800.52
2023-04-09T10:21:53.542Z,100800.79
2023-04-09T10:24:58.173Z,100801.02
2023-04-09T10:28:02.613Z,100797.95
2023-04-09T10:31:07.811Z,100802.20
2023-04-09T10:34:12.440Z,100802.52
2023-04-09T10:37:20.616Z,100795.30
2023-04-09T10:40:23.392Z,100791.34
2023-04-09T10:43:26.059Z,100782.31
2023-04-09T10:46:30.996Z,100782.14
2023-04-09T10:49:38.240Z,100779.85
2023-04-09T10:52:42.544Z,100778.48
2023-04-09T10:55:52.684Z,100776.48
2023-04-09T10:58:55.856Z,100776.86
2023-04-09T11:01:58.618Z,100777.44
2023-04-09T11:05:30.691Z,100773.65
2023-04-09T11:08:34.166Z,100768.34
2023-04-09T11:11:37.040Z,100769.39
2023-04-09T11:14:39.727Z,100767.10
2023-04-09T11:17:43.271Z,100765.48
2023-04-09T11:20:46.219Z,100762.59
2023-04-09T11:23:53.056Z,100762.51
2023-04-09T11:26:56.809Z,100760.89
2023-04-09T11:30:00.522Z,100757.36
2023-04-09T11:33:03.543Z,100757.78
2023-04-09T11:36:07.187Z,100761.92
2023-04-09T11:39:09.831Z,100761.33
2023-04-09T11:42:15.902Z,100756.63
2023-04-09T11:45:20.892Z,100757.05
2023-04-09T11:48:25.077Z,100750.45
2023-04-09T11:51:28.754Z,100748.68
2023-04-09T11:54:34.538Z,100742.36
2023-04-09T11:57:39.250Z,100747.98
2023-04-09T12:00:41.890Z,100748.51
2023-04-09T12:03:44.641Z,100744.29
2023-04-09T12:06:48.574Z,100746.95
2023-04-09T12:09:51.231Z,100741.95
2023-04-09T12:12:53.924Z,100745.30
2023-04-09T12:15:58.716Z,100745.52
2023-04-09T12:19:09.352Z,100740.23
2023-04-09T12:22:12.117Z,100742.41
2023-04-09T12:25:26.761Z,100739.05
2023-04-09T12:28:29.515Z,100733.44
2023-04-09T12:31:32.174Z,100730.64
2023-04-09T12:34:34.805Z,100733.39
2023-04-09T12:37:37.520Z,100732.74
2023-04-09T12:40:40.841Z,100728.98
2023-04-09T12:43:44.062Z,100726.34
2023-04-09T12:46:48.519Z,100721.27
2023-04-09T12:49:51.335Z,100716.98
2023-04-09T12:52:54.175Z,100715.02
2023-04-09T12:55:57.142Z,100716.17
2023-04-09T12:58:59.840Z,100710.21
2023-04-09T13:02:03.347Z,100710.23
2023-04-09T13:05:06.789Z,100714.47
2023-04-09T13:08:09.466Z,100707.17
2023-04-09T13:11:12.043Z,100706.47
2023-04-09T13:14:14.678Z,100709.11
2023-04-09T13:17:17.399Z,100707.33
2023-04-09T13:20:20.877Z,100705.10
2023-04-09T13:23:23.492Z,100702.06
2023-04-09T13:26:26.456Z,100704.33
2023-04-09T13:29:29.542Z,100706.16
2023-04-09T13:32:32.463Z,100701.09
2023-04-09T13:35:35.115Z,100699.52
2023-04-09T13:38:38.422Z,100694.98
2023-04-09T13:41:41.116Z,100695.31
2023-04-09T13:44:45.652Z,100689.46
2023-04-09T13:47:49.469Z,100691.09
2023-04-09T13:50:52.193Z,100687.15
2023-04-09T13:53:54.843Z,100684.65
2023-04-09T13:57:05.905Z,100683.23
2023-04-09T14:00:09.192Z,100679.80
2023-04-09T14:03:13.256Z,100682.02
2023-04-09T14:06:15.987Z,100675.50
2023-04-09T14:09:18.524Z,100677.77
2023-04-09T14:12:21.277Z,100673.26
2023-04-09T14:15:23.864Z,100670.17
2023-04-09T14:18:26.528Z,100664.41
2023-04-09T14:21:29.308Z,100662.73
2023-04-09T14:24:31.968Z,100665.14
2023-04-09T14:27:34.568Z,100666.39
2023-04-09T14:30:37.194Z,100664.98
2023-04-09T14:33:40.773Z,100665.48
2023-04-09T14:36:43.396Z,100663.33
2023-04-09T14:39:46.114Z,100659.41
2023-04-09T14:42:50.245Z,100654.54
2023-04-09T14:45:54.433Z,100652.74
2023-04-09T14:48:56.994Z,100649.56
2023-04-09T14:51:59.548Z,100648.65
2023-04-09T14:55:02.143Z,100647.57
2023-04-09T14:58:07.373Z,100647.02
2023-04-09T15:01:10.034Z,100649.77
2023-04-09T15:04:12.804Z,100647.50
2023-04-09T15:07:18.983Z,100650.73
2023-04-09T15:10:21.792Z,100653.26
2023-04-09T15:13:24.468Z,100650.73
2023-04-09T15:16:28.845Z,100653.89
2023-04-09T15:19:32.669Z,100651.85
2023-04-09T15:22:35.489Z,100651.16
2023-04-09T15:25:39.846Z,100650.77
2023-04-09T15:28:42.592Z,100657.68
2023-04-09T15:31:45.198Z,100657.07
2023-04-09T15:34:47.792Z,100656.54
2023-04-09T15:37:51.421Z,100659.29
2023-04-09T15:40:56.524Z,100657.53
2023-04-09T15:43:59.290Z,100654.85
2023-04-09T15:47:01.890Z,100658.88
2023-04-09T15:50:04.950Z,100660.01
2023-04-09T15:53:07.565Z,100659.48
2023-04-09T15:56:15.256Z,100658.96
2023-04-09T15:59:19.012Z,100659.14
2023-04-09T16:02:22.673Z,100664.17
2023-04-09T16:05:26.326Z,100666.27
2023-04-09T16:08:28.862Z,100668.95
2023-04-09T16:11:40.630Z,100666.61
2023-04-09T16:14:43.288Z,100670.66
2023-04-09T16:17:46.250Z,100670.66
2023-04-09T16:20:56.642Z,100676.50
2023-04-09T16:24:00.894Z,100676.23
2023-04-09T16:27:17.100Z,100676.72
2023-04-09T16:30:19.823Z,100677.27
2023-04-09T16:33:22.614Z,100679.67
2023-04-09T16:36:26.501Z,100677.48
2023-04-09T16:39:30.172Z,100676.14
2023-04-09T16:42:32.930Z,100673.30
2023-04-09T16:45:35.848Z,100674.47
2023-04-09T16:48:41.792Z,100674.39
2023-04-09T16:51:44.664Z,100678.30
2023-04-09T16:54:47.572Z,100680.03
2023-04-09T16:57:50.610Z,100678.84
2023-04-09T17:00:53.443Z,100681.05
2023-04-09T17:03:56.671Z,100681.13
2023-04-09T17:07:01.401Z,100676.37
2023-04-09T17:10:05.052Z,100681.55
2023-04-09T17:13:12.246Z,100680.32
2023-04-09T17:16:15.624Z,100679.64
2023-04-09T17:19:19.719Z,100677.00
2023-04-09T17:22:29.179Z,100682.39
2023-04-09T17:25:31.828Z,100685.75
2023-04-09T17:28:34.458Z,100686.70
2023-04-09T17:31:38.773Z,100691.18
2023-04-09T17:34:41.548Z,100696.97
2023-04-09T17:37:44.214Z,100696.33
2023-04-09T17:40:48.065Z,100701.71
2023-04-09T17:43:50.897Z,100711.23
2023-04-09T17:46:53.988Z,100711.27
2023-04-09T17:49:56.850Z,100714.13
2023-04-09T17:52:59.455Z,100717.98
2023-04-09T17:56:04.052Z,100715.83
2023-04-09T17:59:07.268Z,100714.79
2023-04-09T18:02:10.710Z,100721.00
2023-04-09T18:05:13.810Z,100720.84
2023-04-09T18:08:17.508Z,100719.54
2023-04-09T18:11:21.211Z,100722.05
2023-04-09T18:14:23.952Z,100721.39
2023-04-09T18:17:26.726Z,100722.89
2023-04-09T18:20:29.834Z,100724.45
2023-04-09T18:23:32.970Z,100725.11
2023-04-09T18:26:36.832Z,100733.00
2023-04-09T18:29:39.880Z,100735.13
2023-04-09T18:32:43.631Z,100737.73
2023-04-09T18:35:46.556Z,100743.98
2023-04-09T18:38:49.559Z,100750.42
2023-04-09T18:41:52.289Z,100749.05
2023-04-09T18:44:55.216Z,100748.59
2023-04-09T18:47:57.836Z,100752.62
2023-04-09T18:51:03.161Z,100755.63
2023-04-09T18:54:06.505Z,100757.25
2023-04-09T18:57:09.530Z,100759.15
2023-04-09T19:00:12.660Z,100761.11
2023-04-09T19:03:17.081Z,100762.16
2023-04-09T19:06:20.527Z,100760.42
2023-04-09T19:09:23.729Z,100762.76
2023-04-09T19:12:29.708Z,100764.20
2023-04-09T19:15:38.490Z,100763.73
2023-04-09T19:18:41.439Z,100762.48
2023-04-09T19:21:44.041Z,100764.09
2023-04-09T19:24:47.080Z,100763.77
2023-04-09T19:27:49.847Z,100763.45
2023-04-09T19:30:53.170Z,100760.86
2023-04-09T19:33:58.319Z,100764.24
2023-04-09T19:37:02.819Z,100761.06
2023-04-09T19:40:07.889Z,100767.86
2023-04-09T19:43:11.189Z,100768.55
2023-04-09T19:46:13.751Z,100769.40
2023-04-09T19:49:16.779Z,100769.38
2023-04-09T19:56:10.525Z,100756.86
2023-04-09T19:59:13.209Z,100752.02
2023-04-09T20:02:16.206Z,100750.19
2023-04-09T20:05:34.497Z,100749.88
2023-04-09T20:08:38.117Z,100746.67
2023-04-09T20:11:42.252Z,100748.70
2023-04-09T20:14:51.098Z,100752.37
2023-04-09T20:17:53.855Z,100758.92
2023-04-09T20:20:56.603Z,100756.95
2023-04-09T20:23:59.271Z,100754.83
2023-04-09T20:27:02.249Z,100753.62
2023-04-09T20:30:06.287Z,100753.78
2023-04-09T20:33:09.083Z,100754.92
2023-04-09T20:36:19.250Z,100757.16
2023-04-09T20:39:22.597Z,100753.08
2023-04-09T20:42:25.261Z,100750.05
2023-04-09T20:45:27.955Z,100749.85
2023-04-09T20:48:34.007Z,100753.35
2023-04-09T20:51:37.024Z,100758.66
2023-04-09T20:54:49.873Z,100759.31
2023-04-09T20:57:56.528Z,100758.20
2023-04-09T21:01:09.903Z,100759.29
2023-04-09T21:04:13.028Z,100760.82
2023-04-09T21:07:16.320Z,100757.08
2023-04-09T21:10:19.152Z,100754.89
2023-04-09T21:13:23.418Z,100751.58
2023-04-09T21:16:29.911Z,100753.74
2023-04-09T21:19:32.508Z,100759.98
2023-04-09T21:22:35.763Z,100758.79
2023-04-09T21:25:38.471Z,100758.48
2023-04-09T21:28:41.129Z,100760.29
2023-04-09T21:31:43.804Z,100760.41
2023-04-09T21:34:46.444Z,100761.22
2023-04-09T21:37:53.107Z,100761.63
2023-04-09T21:40:55.651Z,100761.42
2023-04-09T21:43:58.303Z,100769.46
2023-04-09T21:47:01.997Z,100775.41
2023-04-09T21:50:05.239Z,100781.23
2023-04-09T21:53:08.345Z,100784.91
2023-04-09T21:56:10.855Z,100786.23
2023-04-09T21:59:13.435Z,100790.05
2023-04-09T22:02:16.117Z,100785.27
2023-04-09T22:05:18.850Z,100781.55
2023-04-09T22:08:21.450Z,100774.21
2023-04-09T22:11:28.594Z,100773.67
2023-04-09T22:14:32.718Z,100772.30
2023-04-09T22:17:35.516Z,100768.73
2023-04-09T22:20:38.166Z,100766.04
2023-04-09T22:23:40.742Z,100761.11
2023-04-09T22:27:02.276Z,100758.52
2023-04-09T22:30:06.403Z,100753.88
2023-04-09T22:33:09.110Z,100754.42
2023-04-09T22:36:12.154Z,100757.31
2023-04-09T22:39:14.782Z,100758.77
2023-04-09T22:42:17.486Z,100752.19
2023-04-09T22:45:20.475Z,100755.17
2023-04-09T22:48:23.561Z,100751.92
2023-04-09T22:51:26.176Z,100752.04
2023-04-09T22:54:30.190Z,100758.95
2023-04-09T22:57:32.786Z,100758.45
2023-04-09T23:00:35.468Z,100757.40
2023-04-09T23:03:38.143Z,100755.68
2023-04-09T23:06:40.786Z,100758.36
2023-04-09T23:09:43.366Z,100754.59
2023-04-09T23:12:46.299Z,100753.13
2023-04-09T23:15:48.858Z,100754.63
2023-04-09T23:18:51.675Z,100754.86
2023-04-09T23:21:54.308Z,100751.61
2023-04-09T23:25:09.549Z,100754.69
2023-04-09T23:28:12.127Z,100753.02
2023-04-09T23:31:14.711Z,100752.67
2023-04-09T23:34:39.974Z,100746.34
2023-04-09T23:37:42.698Z,100740.55
2023-04-09T23:40:49.852Z,100736.91
2023-04-09T23:43:52.839Z,100737.16
2023-04-09T23:46:55.762Z,100739.54
2023-04-09T23:49:59.678Z,100743.09
2023-04-09T23:53:03.957Z,100743.62
2023-04-09T23:56:18.550Z,100744.20
2023-04-09T23:59:21.157Z,100744.65
